sensor_id;sensor_type;location;lat;lon;timestamp;P1;P2;P0
74880;PMS5003;63427;49.654;6.596;2023-02-23T00:00:48;31;28;
74880;PMS5003;63427;49.654;6.596;2023-02-23T00:03:14;40;37;
74880;PMS5003;63427;49.654;6.596;2023-02-23T00:05:39;28;28;
74880;PMS5003;63427;49.654;6.596;2023-02-23T00:08:05;39;37;
74880;PMS5003;63427;49.654;6.596;2023-02-23T00:10:30;35;34;
74880;PMS5003;63427;49.654;6.596;2023-02-23T00:12:55;34;32;
74880;PMS5003;63427;49.654;6.596;2023-02-23T00:15:21;37;36;
74880;PMS5003;63427;49.654;6.596;2023-02-23T00:17:46;38;37;
74880;PMS5003;63427;49.654;6.596;2023-02-23T00:20:13;35;34;
74880;PMS5003;63427;49.654;6.596;2023-02-23T00:22:38;47;46;
74880;PMS5003;63427;49.654;6.596;2023-02-23T00:25:03;47;45;
74880;PMS5003;63427;49.654;6.596;2023-02-23T00:27:28;45;44;
74880;PMS5003;63427;49.654;6.596;2023-02-23T00:29:53;44;43;
74880;PMS5003;63427;49.654;6.596;2023-02-23T00:32:18;43;42;
74880;PMS5003;63427;49.654;6.596;2023-02-23T00:34:44;46;44;
74880;PMS5003;63427;49.654;6.596;2023-02-23T00:37:09;43;40;
74880;PMS5003;63427;49.654;6.596;2023-02-23T00:39:35;47;44;
74880;PMS5003;63427;49.654;6.596;2023-02-23T00:42:00;48;46;
74880;PMS5003;63427;49.654;6.596;2023-02-23T00:44:26;39;38;
74880;PMS5003;63427;49.654;6.596;2023-02-23T00:46:51;41;41;
74880;PMS5003;63427;49.654;6.596;2023-02-23T00:49:17;37;35;
74880;PMS5003;63427;49.654;6.596;2023-02-23T00:51:43;33;32;
74880;PMS5003;63427;49.654;6.596;2023-02-23T00:54:09;38;36;
74880;PMS5003;63427;49.654;6.596;2023-02-23T00:56:34;30;29;
74880;PMS5003;63427;49.654;6.596;2023-02-23T00:59:00;38;37;
74880;PMS5003;63427;49.654;6.596;2023-02-23T01:01:25;37;34;
74880;PMS5003;63427;49.654;6.596;2023-02-23T01:03:51;39;37;
74880;PMS5003;63427;49.654;6.596;2023-02-23T01:06:16;33;33;
74880;PMS5003;63427;49.654;6.596;2023-02-23T01:08:42;25;25;
74880;PMS5003;63427;49.654;6.596;2023-02-23T01:11:07;35;34;
74880;PMS5003;63427;49.654;6.596;2023-02-23T01:13:32;34;33;
74880;PMS5003;63427;49.654;6.596;2023-02-23T01:15:58;39;39;
74880;PMS5003;63427;49.654;6.596;2023-02-23T01:18:23;40;36;
74880;PMS5003;63427;49.654;6.596;2023-02-23T01:20:48;37;36;
74880;PMS5003;63427;49.654;6.596;2023-02-23T01:23:14;32;31;
74880;PMS5003;63427;49.654;6.596;2023-02-23T01:25:40;36;35;
74880;PMS5003;63427;49.654;6.596;2023-02-23T01:28:05;30;29;
74880;PMS5003;63427;49.654;6.596;2023-02-23T01:30:30;35;35;
74880;PMS5003;63427;49.654;6.596;2023-02-23T01:32:55;36;36;
74880;PMS5003;63427;49.654;6.596;2023-02-23T01:35:21;42;41;
74880;PMS5003;63427;49.654;6.596;2023-02-23T01:37:46;38;38;
74880;PMS5003;63427;49.654;6.596;2023-02-23T01:40:13;38;37;
74880;PMS5003;63427;49.654;6.596;2023-02-23T01:42:38;34;33;
74880;PMS5003;63427;49.654;6.596;2023-02-23T01:47:28;36;35;
74880;PMS5003;63427;49.654;6.596;2023-02-23T01:49:54;39;38;
74880;PMS5003;63427;49.654;6.596;2023-02-23T01:52:20;37;37;
74880;PMS5003;63427;49.654;6.596;2023-02-23T01:54:45;38;38;
74880;PMS5003;63427;49.654;6.596;2023-02-23T01:57:10;41;39;
74880;PMS5003;63427;49.654;6.596;2023-02-23T01:59:37;41;41;
74880;PMS5003;63427;49.654;6.596;2023-02-23T02:02:01;39;38;
74880;PMS5003;63427;49.654;6.596;2023-02-23T02:04:27;35;34;
74880;PMS5003;63427;49.654;6.596;2023-02-23T02:06:52;41;39;
74880;PMS5003;63427;49.654;6.596;2023-02-23T02:09:18;42;41;
74880;PMS5003;63427;49.654;6.596;2023-02-23T02:11:43;35;35;
74880;PMS5003;63427;49.654;6.596;2023-02-23T02:14:09;36;36;
74880;PMS5003;63427;49.654;6.596;2023-02-23T02:16:39;42;41;
74880;PMS5003;63427;49.654;6.596;2023-02-23T02:19:04;45;44;
74880;PMS5003;63427;49.654;6.596;2023-02-23T02:23:53;41;40;
74880;PMS5003;63427;49.654;6.596;2023-02-23T02:26:17;45;44;
74880;PMS5003;63427;49.654;6.596;2023-02-23T02:28:45;42;40;
74880;PMS5003;63427;49.654;6.596;2023-02-23T02:33:35;37;37;
74880;PMS5003;63427;49.654;6.596;2023-02-23T02:36:03;36;36;
74880;PMS5003;63427;49.654;6.596;2023-02-23T02:38:25;43;42;
74880;PMS5003;63427;49.654;6.596;2023-02-23T02:40:50;43;42;
74880;PMS5003;63427;49.654;6.596;2023-02-23T02:43:14;38;38;
74880;PMS5003;63427;49.654;6.596;2023-02-23T02:45:41;42;42;
74880;PMS5003;63427;49.654;6.596;2023-02-23T02:48:05;51;50;
74880;PMS5003;63427;49.654;6.596;2023-02-23T02:50:32;46;45;
74880;PMS5003;63427;49.654;6.596;2023-02-23T02:52:56;49;47;
74880;PMS5003;63427;49.654;6.596;2023-02-23T02:55:21;40;39;
74880;PMS5003;63427;49.654;6.596;2023-02-23T02:57:46;38;37;
74880;PMS5003;63427;49.654;6.596;2023-02-23T03:00:13;36;36;
74880;PMS5003;63427;49.654;6.596;2023-02-23T03:02:37;41;40;
74880;PMS5003;63427;49.654;6.596;2023-02-23T03:05:06;33;31;
74880;PMS5003;63427;49.654;6.596;2023-02-23T03:07:29;37;36;
74880;PMS5003;63427;49.654;6.596;2023-02-23T03:09:54;38;35;
74880;PMS5003;63427;49.654;6.596;2023-02-23T03:12:21;34;33;
74880;PMS5003;63427;49.654;6.596;2023-02-23T03:14:44;33;33;
74880;PMS5003;63427;49.654;6.596;2023-02-23T03:17:11;44;40;
74880;PMS5003;63427;49.654;6.596;2023-02-23T03:19:35;31;30;
74880;PMS5003;63427;49.654;6.596;2023-02-23T03:22:01;36;36;
74880;PMS5003;63427;49.654;6.596;2023-02-23T03:24:27;37;37;
74880;PMS5003;63427;49.654;6.596;2023-02-23T03:26:52;35;34;
74880;PMS5003;63427;49.654;6.596;2023-02-23T03:29:17;35;35;
74880;PMS5003;63427;49.654;6.596;2023-02-23T03:31:44;35;34;
74880;PMS5003;63427;49.654;6.596;2023-02-23T03:34:09;33;31;
74880;PMS5003;63427;49.654;6.596;2023-02-23T03:36:33;30;29;
74880;PMS5003;63427;49.654;6.596;2023-02-23T03:38:58;36;35;
74880;PMS5003;63427;49.654;6.596;2023-02-23T03:41:23;37;36;
74880;PMS5003;63427;49.654;6.596;2023-02-23T03:43:49;38;36;
74880;PMS5003;63427;49.654;6.596;2023-02-23T03:46:13;30;30;
74880;PMS5003;63427;49.654;6.596;2023-02-23T03:48:39;30;30;
74880;PMS5003;63427;49.654;6.596;2023-02-23T03:51:05;33;32;
74880;PMS5003;63427;49.654;6.596;2023-02-23T03:53:31;27;26;
74880;PMS5003;63427;49.654;6.596;2023-02-23T03:55:56;34;33;
74880;PMS5003;63427;49.654;6.596;2023-02-23T03:58:21;32;30;
74880;PMS5003;63427;49.654;6.596;2023-02-23T04:00:47;32;32;
74880;PMS5003;63427;49.654;6.596;2023-02-23T04:03:11;26;26;
74880;PMS5003;63427;49.654;6.596;2023-02-23T04:05:38;30;30;
74880;PMS5003;63427;49.654;6.596;2023-02-23T04:08:04;30;30;
74880;PMS5003;63427;49.654;6.596;2023-02-23T04:10:28;27;27;
74880;PMS5003;63427;49.654;6.596;2023-02-23T04:12:55;31;31;
74880;PMS5003;63427;49.654;6.596;2023-02-23T04:15:20;29;28;
74880;PMS5003;63427;49.654;6.596;2023-02-23T04:17:44;31;31;
74880;PMS5003;63427;49.654;6.596;2023-02-23T04:20:10;33;33;
74880;PMS5003;63427;49.654;6.596;2023-02-23T04:22:35;27;27;
74880;PMS5003;63427;49.654;6.596;2023-02-23T04:25:01;27;26;
74880;PMS5003;63427;49.654;6.596;2023-02-23T04:27:26;29;28;
74880;PMS5003;63427;49.654;6.596;2023-02-23T04:29:52;31;31;
74880;PMS5003;63427;49.654;6.596;2023-02-23T04:32:18;25;25;
74880;PMS5003;63427;49.654;6.596;2023-02-23T04:34:43;29;28;
74880;PMS5003;63427;49.654;6.596;2023-02-23T04:37:08;29;28;
74880;PMS5003;63427;49.654;6.596;2023-02-23T04:39:33;23;22;
74880;PMS5003;63427;49.654;6.596;2023-02-23T04:41:59;25;25;
74880;PMS5003;63427;49.654;6.596;2023-02-23T04:44:25;36;35;
74880;PMS5003;63427;49.654;6.596;2023-02-23T04:46:50;23;22;
74880;PMS5003;63427;49.654;6.596;2023-02-23T04:49:16;26;26;
74880;PMS5003;63427;49.654;6.596;2023-02-23T04:51:41;30;28;
74880;PMS5003;63427;49.654;6.596;2023-02-23T04:54:06;30;29;
74880;PMS5003;63427;49.654;6.596;2023-02-23T04:56:32;24;24;
74880;PMS5003;63427;49.654;6.596;2023-02-23T04:58:57;27;27;
74880;PMS5003;63427;49.654;6.596;2023-02-23T05:01:22;26;25;
74880;PMS5003;63427;49.654;6.596;2023-02-23T05:03:48;23;23;
74880;PMS5003;63427;49.654;6.596;2023-02-23T05:06:13;27;27;
74880;PMS5003;63427;49.654;6.596;2023-02-23T05:08:38;26;26;
74880;PMS5003;63427;49.654;6.596;2023-02-23T05:11:04;28;28;
74880;PMS5003;63427;49.654;6.596;2023-02-23T05:13:29;27;26;
74880;PMS5003;63427;49.654;6.596;2023-02-23T05:15:55;29;28;
74880;PMS5003;63427;49.654;6.596;2023-02-23T05:18:20;25;24;
74880;PMS5003;63427;49.654;6.596;2023-02-23T05:20:45;23;23;
74880;PMS5003;63427;49.654;6.596;2023-02-23T05:23:10;27;26;
74880;PMS5003;63427;49.654;6.596;2023-02-23T05:25:36;26;26;
74880;PMS5003;63427;49.654;6.596;2023-02-23T05:28:01;29;29;
74880;PMS5003;63427;49.654;6.596;2023-02-23T05:30:26;27;27;
74880;PMS5003;63427;49.654;6.596;2023-02-23T05:32:52;31;31;
74880;PMS5003;63427;49.654;6.596;2023-02-23T05:35:18;25;25;
74880;PMS5003;63427;49.654;6.596;2023-02-23T05:37:43;29;29;
74880;PMS5003;63427;49.654;6.596;2023-02-23T05:40:10;22;22;
74880;PMS5003;63427;49.654;6.596;2023-02-23T05:42:35;21;20;
74880;PMS5003;63427;49.654;6.596;2023-02-23T05:45:00;24;23;
74880;PMS5003;63427;49.654;6.596;2023-02-23T05:47:25;27;27;
74880;PMS5003;63427;49.654;6.596;2023-02-23T05:49:51;25;23;
74880;PMS5003;63427;49.654;6.596;2023-02-23T05:52:16;20;20;
74880;PMS5003;63427;49.654;6.596;2023-02-23T05:54:42;24;23;
74880;PMS5003;63427;49.654;6.596;2023-02-23T05:57:07;25;25;
74880;PMS5003;63427;49.654;6.596;2023-02-23T05:59:32;26;24;
74880;PMS5003;63427;49.654;6.596;2023-02-23T06:01:58;22;21;
74880;PMS5003;63427;49.654;6.596;2023-02-23T06:04:23;21;20;
74880;PMS5003;63427;49.654;6.596;2023-02-23T06:06:49;23;23;
74880;PMS5003;63427;49.654;6.596;2023-02-23T06:09:14;22;21;
74880;PMS5003;63427;49.654;6.596;2023-02-23T06:11:40;20;20;
74880;PMS5003;63427;49.654;6.596;2023-02-23T06:14:06;25;25;
74880;PMS5003;63427;49.654;6.596;2023-02-23T06:16:31;19;18;
74880;PMS5003;63427;49.654;6.596;2023-02-23T06:18:57;21;20;
74880;PMS5003;63427;49.654;6.596;2023-02-23T06:21:22;20;19;
74880;PMS5003;63427;49.654;6.596;2023-02-23T06:23:48;15;14;
74880;PMS5003;63427;49.654;6.596;2023-02-23T06:26:14;20;20;
74880;PMS5003;63427;49.654;6.596;2023-02-23T06:28:39;25;25;
74880;PMS5003;63427;49.654;6.596;2023-02-23T06:31:04;22;22;
74880;PMS5003;63427;49.654;6.596;2023-02-23T06:33:30;24;23;
74880;PMS5003;63427;49.654;6.596;2023-02-23T06:35:55;21;20;
74880;PMS5003;63427;49.654;6.596;2023-02-23T06:38:21;21;20;
74880;PMS5003;63427;49.654;6.596;2023-02-23T06:40:46;23;23;
74880;PMS5003;63427;49.654;6.596;2023-02-23T06:43:12;25;24;
74880;PMS5003;63427;49.654;6.596;2023-02-23T06:45:37;26;26;
74880;PMS5003;63427;49.654;6.596;2023-02-23T06:48:03;23;23;
74880;PMS5003;63427;49.654;6.596;2023-02-23T06:50:28;22;21;
74880;PMS5003;63427;49.654;6.596;2023-02-23T06:52:54;24;21;
74880;PMS5003;63427;49.654;6.596;2023-02-23T06:55:20;24;24;
74880;PMS5003;63427;49.654;6.596;2023-02-23T06:57:47;21;21;
74880;PMS5003;63427;49.654;6.596;2023-02-23T07:00:11;27;27;
74880;PMS5003;63427;49.654;6.596;2023-02-23T07:02:36;24;23;
74880;PMS5003;63427;49.654;6.596;2023-02-23T07:05:02;43;41;
74880;PMS5003;63427;49.654;6.596;2023-02-23T07:07:28;33;32;
74880;PMS5003;63427;49.654;6.596;2023-02-23T07:09:54;38;35;
74880;PMS5003;63427;49.654;6.596;2023-02-23T07:12:19;35;35;
74880;PMS5003;63427;49.654;6.596;2023-02-23T07:14:44;30;28;
74880;PMS5003;63427;49.654;6.596;2023-02-23T07:17:10;30;30;
74880;PMS5003;63427;49.654;6.596;2023-02-23T07:19:35;24;23;
74880;PMS5003;63427;49.654;6.596;2023-02-23T07:22:01;26;24;
74880;PMS5003;63427;49.654;6.596;2023-02-23T07:24:26;23;22;
74880;PMS5003;63427;49.654;6.596;2023-02-23T07:26:52;23;21;
74880;PMS5003;63427;49.654;6.596;2023-02-23T07:29:17;26;26;
74880;PMS5003;63427;49.654;6.596;2023-02-23T07:31:42;29;28;
74880;PMS5003;63427;49.654;6.596;2023-02-23T07:34:07;29;28;
74880;PMS5003;63427;49.654;6.596;2023-02-23T07:36:33;36;35;
74880;PMS5003;63427;49.654;6.596;2023-02-23T07:38:59;33;33;
74880;PMS5003;63427;49.654;6.596;2023-02-23T07:41:24;36;35;
74880;PMS5003;63427;49.654;6.596;2023-02-23T07:43:50;32;31;
74880;PMS5003;63427;49.654;6.596;2023-02-23T07:46:16;32;29;
74880;PMS5003;63427;49.654;6.596;2023-02-23T07:48:41;28;28;
74880;PMS5003;63427;49.654;6.596;2023-02-23T07:51:07;27;27;
74880;PMS5003;63427;49.654;6.596;2023-02-23T07:53:32;29;29;
74880;PMS5003;63427;49.654;6.596;2023-02-23T07:55:58;31;30;
74880;PMS5003;63427;49.654;6.596;2023-02-23T07:58:23;30;29;
74880;PMS5003;63427;49.654;6.596;2023-02-23T08:00:49;32;29;
74880;PMS5003;63427;49.654;6.596;2023-02-23T08:03:14;35;34;
74880;PMS5003;63427;49.654;6.596;2023-02-23T08:05:39;31;30;
74880;PMS5003;63427;49.654;6.596;2023-02-23T08:08:05;29;29;
74880;PMS5003;63427;49.654;6.596;2023-02-23T08:10:30;40;39;
74880;PMS5003;63427;49.654;6.596;2023-02-23T08:12:56;36;36;
74880;PMS5003;63427;49.654;6.596;2023-02-23T08:15:21;31;30;
74880;PMS5003;63427;49.654;6.596;2023-02-23T08:17:47;32;30;
74880;PMS5003;63427;49.654;6.596;2023-02-23T08:20:13;32;30;
74880;PMS5003;63427;49.654;6.596;2023-02-23T08:22:37;31;31;
74880;PMS5003;63427;49.654;6.596;2023-02-23T08:25:03;37;35;
74880;PMS5003;63427;49.654;6.596;2023-02-23T08:27:29;29;28;
74880;PMS5003;63427;49.654;6.596;2023-02-23T08:29:54;27;26;
74880;PMS5003;63427;49.654;6.596;2023-02-23T08:32:20;33;33;
74880;PMS5003;63427;49.654;6.596;2023-02-23T08:34:45;32;29;
74880;PMS5003;63427;49.654;6.596;2023-02-23T08:37:10;32;30;
74880;PMS5003;63427;49.654;6.596;2023-02-23T08:39:35;35;34;
74880;PMS5003;63427;49.654;6.596;2023-02-23T08:42:01;28;28;
74880;PMS5003;63427;49.654;6.596;2023-02-23T08:44:26;23;23;
74880;PMS5003;63427;49.654;6.596;2023-02-23T08:46:52;29;29;
74880;PMS5003;63427;49.654;6.596;2023-02-23T08:49:17;29;27;
74880;PMS5003;63427;49.654;6.596;2023-02-23T08:51:42;27;25;
74880;PMS5003;63427;49.654;6.596;2023-02-23T08:54:08;30;30;
74880;PMS5003;63427;49.654;6.596;2023-02-23T08:56:33;32;29;
74880;PMS5003;63427;49.654;6.596;2023-02-23T08:58:58;31;28;
74880;PMS5003;63427;49.654;6.596;2023-02-23T09:01:24;29;28;
74880;PMS5003;63427;49.654;6.596;2023-02-23T09:03:50;35;33;
74880;PMS5003;63427;49.654;6.596;2023-02-23T09:06:16;27;26;
74880;PMS5003;63427;49.654;6.596;2023-02-23T09:08:40;34;34;
74880;PMS5003;63427;49.654;6.596;2023-02-23T09:11:06;28;28;
74880;PMS5003;63427;49.654;6.596;2023-02-23T09:13:31;29;29;
74880;PMS5003;63427;49.654;6.596;2023-02-23T09:15:57;36;35;
74880;PMS5003;63427;49.654;6.596;2023-02-23T09:18:22;33;33;
74880;PMS5003;63427;49.654;6.596;2023-02-23T09:20:48;32;31;
74880;PMS5003;63427;49.654;6.596;2023-02-23T09:23:14;32;30;
74880;PMS5003;63427;49.654;6.596;2023-02-23T09:25:39;30;30;
74880;PMS5003;63427;49.654;6.596;2023-02-23T09:28:04;29;29;
74880;PMS5003;63427;49.654;6.596;2023-02-23T09:30:30;32;32;
74880;PMS5003;63427;49.654;6.596;2023-02-23T09:32:56;36;36;
74880;PMS5003;63427;49.654;6.596;2023-02-23T09:35:22;31;30;
74880;PMS5003;63427;49.654;6.596;2023-02-23T09:37:47;31;31;
74880;PMS5003;63427;49.654;6.596;2023-02-23T09:40:13;37;35;
74880;PMS5003;63427;49.654;6.596;2023-02-23T09:42:38;33;31;
74880;PMS5003;63427;49.654;6.596;2023-02-23T09:45:06;33;32;
74880;PMS5003;63427;49.654;6.596;2023-02-23T09:47:30;33;33;
74880;PMS5003;63427;49.654;6.596;2023-02-23T09:49:54;34;33;
74880;PMS5003;63427;49.654;6.596;2023-02-23T09:52:20;32;30;
74880;PMS5003;63427;49.654;6.596;2023-02-23T09:54:44;32;29;
74880;PMS5003;63427;49.654;6.596;2023-02-23T09:57:11;31;29;
74880;PMS5003;63427;49.654;6.596;2023-02-23T09:59:35;30;28;
74880;PMS5003;63427;49.654;6.596;2023-02-23T10:02:02;27;27;
74880;PMS5003;63427;49.654;6.596;2023-02-23T10:04:27;29;29;
74880;PMS5003;63427;49.654;6.596;2023-02-23T10:06:53;30;30;
74880;PMS5003;63427;49.654;6.596;2023-02-23T10:09:19;35;35;
74880;PMS5003;63427;49.654;6.596;2023-02-23T10:11:43;38;36;
74880;PMS5003;63427;49.654;6.596;2023-02-23T10:14:12;32;30;
74880;PMS5003;63427;49.654;6.596;2023-02-23T10:16:35;30;30;
74880;PMS5003;63427;49.654;6.596;2023-02-23T10:19:00;27;26;
74880;PMS5003;63427;49.654;6.596;2023-02-23T10:21:26;33;32;
74880;PMS5003;63427;49.654;6.596;2023-02-23T10:23:50;36;36;
74880;PMS5003;63427;49.654;6.596;2023-02-23T10:26:17;27;26;
74880;PMS5003;63427;49.654;6.596;2023-02-23T10:28:41;29;29;
74880;PMS5003;63427;49.654;6.596;2023-02-23T10:31:15;29;27;
74880;PMS5003;63427;49.654;6.596;2023-02-23T10:33:33;36;36;
74880;PMS5003;63427;49.654;6.596;2023-02-23T10:35:59;42;39;
74880;PMS5003;63427;49.654;6.596;2023-02-23T10:38:23;40;38;
74880;PMS5003;63427;49.654;6.596;2023-02-23T10:40:49;37;37;
74880;PMS5003;63427;49.654;6.596;2023-02-23T10:43:14;41;41;
74880;PMS5003;63427;49.654;6.596;2023-02-23T10:45:42;44;42;
74880;PMS5003;63427;49.654;6.596;2023-02-23T10:48:05;39;38;
74880;PMS5003;63427;49.654;6.596;2023-02-23T10:50:29;40;38;
74880;PMS5003;63427;49.654;6.596;2023-02-23T10:52:56;52;50;
74880;PMS5003;63427;49.654;6.596;2023-02-23T10:55:22;30;28;
74880;PMS5003;63427;49.654;6.596;2023-02-23T10:57:46;29;28;
74880;PMS5003;63427;49.654;6.596;2023-02-23T11:02:37;34;34;
74880;PMS5003;63427;49.654;6.596;2023-02-23T11:05:02;34;33;
74880;PMS5003;63427;49.654;6.596;2023-02-23T11:07:28;36;33;
74880;PMS5003;63427;49.654;6.596;2023-02-23T11:09:52;38;36;
74880;PMS5003;63427;49.654;6.596;2023-02-23T11:12:19;37;36;
74880;PMS5003;63427;49.654;6.596;2023-02-23T11:14:43;38;37;
74880;PMS5003;63427;49.654;6.596;2023-02-23T11:19:34;36;36;
74880;PMS5003;63427;49.654;6.596;2023-02-23T11:21:59;33;32;
74880;PMS5003;63427;49.654;6.596;2023-02-23T11:24:24;37;36;
74880;PMS5003;63427;49.654;6.596;2023-02-23T11:26:50;29;28;
74880;PMS5003;63427;49.654;6.596;2023-02-23T11:29:15;34;32;
74880;PMS5003;63427;49.654;6.596;2023-02-23T11:31:40;29;29;
74880;PMS5003;63427;49.654;6.596;2023-02-23T11:34:05;26;24;
74880;PMS5003;63427;49.654;6.596;2023-02-23T11:36:31;32;31;
74880;PMS5003;63427;49.654;6.596;2023-02-23T11:39:00;28;28;
74880;PMS5003;63427;49.654;6.596;2023-02-23T11:41:22;29;28;
74880;PMS5003;63427;49.654;6.596;2023-02-23T11:43:48;27;26;
74880;PMS5003;63427;49.654;6.596;2023-02-23T11:46:13;34;31;
74880;PMS5003;63427;49.654;6.596;2023-02-23T11:48:40;35;35;
74880;PMS5003;63427;49.654;6.596;2023-02-23T11:51:03;29;29;
74880;PMS5003;63427;49.654;6.596;2023-02-23T11:53:30;33;32;
74880;PMS5003;63427;49.654;6.596;2023-02-23T11:55:56;30;30;
74880;PMS5003;63427;49.654;6.596;2023-02-23T11:58:22;29;29;
74880;PMS5003;63427;49.654;6.596;2023-02-23T12:03:14;29;27;
74880;PMS5003;63427;49.654;6.596;2023-02-23T12:05:37;34;32;
74880;PMS5003;63427;49.654;6.596;2023-02-23T12:08:03;26;26;
74880;PMS5003;63427;49.654;6.596;2023-02-23T12:10:28;28;27;
74880;PMS5003;63427;49.654;6.596;2023-02-23T12:12:54;36;35;
74880;PMS5003;63427;49.654;6.596;2023-02-23T12:15:21;38;37;
74880;PMS5003;63427;49.654;6.596;2023-02-23T12:17:44;27;26;
74880;PMS5003;63427;49.654;6.596;2023-02-23T12:20:10;28;28;
74880;PMS5003;63427;49.654;6.596;2023-02-23T12:22:34;31;30;
74880;PMS5003;63427;49.654;6.596;2023-02-23T12:25:00;23;23;
74880;PMS5003;63427;49.654;6.596;2023-02-23T12:27:25;32;31;
74880;PMS5003;63427;49.654;6.596;2023-02-23T12:29:54;33;31;
74880;PMS5003;63427;49.654;6.596;2023-02-23T12:32:16;25;24;
74880;PMS5003;63427;49.654;6.596;2023-02-23T12:34:41;29;29;
74880;PMS5003;63427;49.654;6.596;2023-02-23T12:37:10;30;30;
74880;PMS5003;63427;49.654;6.596;2023-02-23T12:39:33;30;30;
74880;PMS5003;63427;49.654;6.596;2023-02-23T12:42:00;34;34;
74880;PMS5003;63427;49.654;6.596;2023-02-23T12:44:28;22;22;
74880;PMS5003;63427;49.654;6.596;2023-02-23T12:46:49;33;32;
74880;PMS5003;63427;49.654;6.596;2023-02-23T12:49:16;28;27;
74880;PMS5003;63427;49.654;6.596;2023-02-23T12:51:40;31;30;
74880;PMS5003;63427;49.654;6.596;2023-02-23T12:54:04;32;31;
74880;PMS5003;63427;49.654;6.596;2023-02-23T12:56:35;35;34;
74880;PMS5003;63427;49.654;6.596;2023-02-23T12:58:57;25;25;
74880;PMS5003;63427;49.654;6.596;2023-02-23T13:01:21;27;27;
74880;PMS5003;63427;49.654;6.596;2023-02-23T13:03:54;31;30;
74880;PMS5003;63427;49.654;6.596;2023-02-23T13:06:14;32;32;
74880;PMS5003;63427;49.654;6.596;2023-02-23T13:08:44;31;31;
74880;PMS5003;63427;49.654;6.596;2023-02-23T13:11:05;32;31;
74880;PMS5003;63427;49.654;6.596;2023-02-23T13:13:30;29;28;
74880;PMS5003;63427;49.654;6.596;2023-02-23T13:15:58;27;27;
74880;PMS5003;63427;49.654;6.596;2023-02-23T13:18:21;25;24;
74880;PMS5003;63427;49.654;6.596;2023-02-23T13:20:46;26;26;
74880;PMS5003;63427;49.654;6.596;2023-02-23T13:23:14;29;28;
74880;PMS5003;63427;49.654;6.596;2023-02-23T13:25:39;28;27;
74880;PMS5003;63427;49.654;6.596;2023-02-23T13:28:03;39;38;
74880;PMS5003;63427;49.654;6.596;2023-02-23T13:30:28;35;34;
74880;PMS5003;63427;49.654;6.596;2023-02-23T13:32:53;26;26;
74880;PMS5003;63427;49.654;6.596;2023-02-23T13:35:18;26;26;
74880;PMS5003;63427;49.654;6.596;2023-02-23T13:37:44;22;22;
74880;PMS5003;63427;49.654;6.596;2023-02-23T13:40:16;31;30;
74880;PMS5003;63427;49.654;6.596;2023-02-23T13:42:37;34;31;
74880;PMS5003;63427;49.654;6.596;2023-02-23T13:45:03;25;25;
74880;PMS5003;63427;49.654;6.596;2023-02-23T13:47:29;24;23;
74880;PMS5003;63427;49.654;6.596;2023-02-23T13:49:53;27;26;
74880;PMS5003;63427;49.654;6.596;2023-02-23T13:52:19;23;22;
74880;PMS5003;63427;49.654;6.596;2023-02-23T13:57:11;27;25;
74880;PMS5003;63427;49.654;6.596;2023-02-23T13:59:36;24;24;
74880;PMS5003;63427;49.654;6.596;2023-02-23T14:01:58;24;23;
74880;PMS5003;63427;49.654;6.596;2023-02-23T14:04:23;23;22;
74880;PMS5003;63427;49.654;6.596;2023-02-23T14:06:50;22;21;
74880;PMS5003;63427;49.654;6.596;2023-02-23T14:09:17;21;21;
74880;PMS5003;63427;49.654;6.596;2023-02-23T14:11:42;23;22;
74880;PMS5003;63427;49.654;6.596;2023-02-23T14:14:05;26;26;
74880;PMS5003;63427;49.654;6.596;2023-02-23T14:16:31;23;22;
74880;PMS5003;63427;49.654;6.596;2023-02-23T14:19:05;24;23;
74880;PMS5003;63427;49.654;6.596;2023-02-23T14:21:26;27;27;
74880;PMS5003;63427;49.654;6.596;2023-02-23T14:23:48;26;26;
74880;PMS5003;63427;49.654;6.596;2023-02-23T14:26:14;26;25;
74880;PMS5003;63427;49.654;6.596;2023-02-23T14:28:39;22;22;
74880;PMS5003;63427;49.654;6.596;2023-02-23T14:31:05;21;20;
74880;PMS5003;63427;49.654;6.596;2023-02-23T14:33:34;21;21;
74880;PMS5003;63427;49.654;6.596;2023-02-23T14:35:54;25;24;
74880;PMS5003;63427;49.654;6.596;2023-02-23T14:38:23;23;22;
74880;PMS5003;63427;49.654;6.596;2023-02-23T14:40:47;25;24;
74880;PMS5003;63427;49.654;6.596;2023-02-23T14:45:37;28;28;
74880;PMS5003;63427;49.654;6.596;2023-02-23T14:48:04;30;28;
74880;PMS5003;63427;49.654;6.596;2023-02-23T14:50:29;31;31;
74880;PMS5003;63427;49.654;6.596;2023-02-23T14:52:54;29;29;
74880;PMS5003;63427;49.654;6.596;2023-02-23T14:55:20;26;25;
74880;PMS5003;63427;49.654;6.596;2023-02-23T14:57:45;28;27;
74880;PMS5003;63427;49.654;6.596;2023-02-23T15:00:14;26;24;
74880;PMS5003;63427;49.654;6.596;2023-02-23T15:02:37;24;23;
74880;PMS5003;63427;49.654;6.596;2023-02-23T15:07:28;33;32;
74880;PMS5003;63427;49.654;6.596;2023-02-23T15:09:53;29;28;
74880;PMS5003;63427;49.654;6.596;2023-02-23T15:12:19;26;25;
74880;PMS5003;63427;49.654;6.596;2023-02-23T15:14:44;29;28;
74880;PMS5003;63427;49.654;6.596;2023-02-23T15:17:11;22;22;
74880;PMS5003;63427;49.654;6.596;2023-02-23T15:19:34;29;26;
74880;PMS5003;63427;49.654;6.596;2023-02-23T15:22:00;38;38;
74880;PMS5003;63427;49.654;6.596;2023-02-23T15:24:26;40;39;
74880;PMS5003;63427;49.654;6.596;2023-02-23T15:26:50;31;30;
74880;PMS5003;63427;49.654;6.596;2023-02-23T15:29:16;32;31;
74880;PMS5003;63427;49.654;6.596;2023-02-23T15:31:41;32;30;
74880;PMS5003;63427;49.654;6.596;2023-02-23T15:34:06;35;35;
74880;PMS5003;63427;49.654;6.596;2023-02-23T15:36:32;33;33;
74880;PMS5003;63427;49.654;6.596;2023-02-23T15:38:57;38;37;
74880;PMS5003;63427;49.654;6.596;2023-02-23T15:41:24;36;36;
74880;PMS5003;63427;49.654;6.596;2023-02-23T15:43:48;35;35;
74880;PMS5003;63427;49.654;6.596;2023-02-23T15:46:17;34;34;
74880;PMS5003;63427;49.654;6.596;2023-02-23T15:48:40;30;30;
74880;PMS5003;63427;49.654;6.596;2023-02-23T15:51:04;37;37;
74880;PMS5003;63427;49.654;6.596;2023-02-23T15:53:31;32;32;
74880;PMS5003;63427;49.654;6.596;2023-02-23T15:55:55;46;46;
74880;PMS5003;63427;49.654;6.596;2023-02-23T15:58:21;49;48;
74880;PMS5003;63427;49.654;6.596;2023-02-23T16:00:49;34;34;
74880;PMS5003;63427;49.654;6.596;2023-02-23T16:05:37;35;34;
74880;PMS5003;63427;49.654;6.596;2023-02-23T16:08:03;36;35;
74880;PMS5003;63427;49.654;6.596;2023-02-23T16:10:28;36;36;
74880;PMS5003;63427;49.654;6.596;2023-02-23T16:12:54;33;33;
74880;PMS5003;63427;49.654;6.596;2023-02-23T16:15:22;40;40;
74880;PMS5003;63427;49.654;6.596;2023-02-23T16:17:45;39;38;
74880;PMS5003;63427;49.654;6.596;2023-02-23T16:20:12;34;33;
74880;PMS5003;63427;49.654;6.596;2023-02-23T16:22:34;33;32;
74880;PMS5003;63427;49.654;6.596;2023-02-23T16:25:00;30;28;
74880;PMS5003;63427;49.654;6.596;2023-02-23T16:27:25;30;29;
74880;PMS5003;63427;49.654;6.596;2023-02-23T16:29:54;32;32;